sensor_id;sensor_type;location;lat;lon;timestamp;pressure;altitude;pressure_sealevel;temperature;humidity
13387;BME280;6763;48.524;9.044;2023-04-10T00:00:27;98370.56;;;9.46;45.99
13387;BME280;6763;48.524;9.044;2023-04-10T00:02:54;98373.16;;;9.36;46.20
13387;BME280;6763;48.524;9.044;2023-04-10T00:05:20;98377.53;;;9.25;46.30
13387;BME280;6763;48.524;9.044;2023-04-10T00:07:45;98375.03;;;9.10;46.07
13387;BME280;6763;48.524;9.044;2023-04-10T00:10:11;98374.19;;;8.96;46.67
13387;BME280;6763;48.524;9.044;2023-04-10T00:12:36;98381.97;;;8.81;46.24
13387;BME280;6763;48.524;9.044;2023-04-10T00:15:02;98371.69;;;8.66;46.71
13387;BME280;6763;48.524;9.044;2023-04-10T00:17:28;98370.84;;;8.52;47.06
13387;BME280;6763;48.524;9.044;2023-04-10T00:19:53;98364.84;;;8.35;47.55
13387;BME280;6763;48.524;9.044;2023-04-10T00:22:19;98365.69;;;8.22;47.18
13387;BME280;6763;48.524;9.044;2023-04-10T00:24:44;98353.63;;;8.10;47.48
13387;BME280;6763;48.524;9.044;2023-04-10T00:27:10;98365.66;;;7.97;47.84
13387;BME280;6763;48.524;9.044;2023-04-10T00:29:35;98359.66;;;7.88;47.60
13387;BME280;6763;48.524;9.044;2023-04-10T00:32:01;98357.91;;;7.81;48.15
13387;BME280;6763;48.524;9.044;2023-04-10T00:34:26;98363.03;;;7.73;48.40
13387;BME280;6763;48.524;9.044;2023-04-10T00:36:51;98359.59;;;7.67;48.49
13387;BME280;6763;48.524;9.044;2023-04-10T00:39:17;98362.16;;;7.59;48.52
13387;BME280;6763;48.524;9.044;2023-04-10T00:41:42;98355.28;;;7.55;48.42
13387;BME280;6763;48.524;9.044;2023-04-10T00:44:07;98360.41;;;7.50;48.57
13387;BME280;6763;48.524;9.044;2023-04-10T00:46:33;98358.69;;;7.45;48.75
13387;BME280;6763;48.524;9.044;2023-04-10T00:48:59;98350.97;;;7.39;49.38
13387;BME280;6763;48.524;9.044;2023-04-10T00:51:25;98347.50;;;7.32;49.60
13387;BME280;6763;48.524;9.044;2023-04-10T00:53:51;98355.22;;;7.28;49.77
13387;BME280;6763;48.524;9.044;2023-04-10T00:56:18;98349.19;;;7.26;49.98
13387;BME280;6763;48.524;9.044;2023-04-10T00:58:44;98353.47;;;7.24;50.10
13387;BME280;6763;48.524;9.044;2023-04-10T01:01:09;98342.31;;;7.20;50.18
13387;BME280;6763;48.524;9.044;2023-04-10T01:03:37;98344.88;;;7.19;49.97
13387;BME280;6763;48.524;9.044;2023-04-10T01:14:31;98349.09;;;7.03;50.43
13387;BME280;6763;48.524;9.044;2023-04-10T01:17:07;98348.25;;;7.04;50.29
13387;BME280;6763;48.524;9.044;2023-04-10T01:22:27;98355.09;;;6.98;51.00
13387;BME280;6763;48.524;9.044;2023-04-10T01:30:17;98354.22;;;6.94;51.20
13387;BME280;6763;48.524;9.044;2023-04-10T01:32:45;98358.47;;;6.89;51.07
13387;BME280;6763;48.524;9.044;2023-04-10T01:35:13;98356.72;;;6.85;51.13
13387;BME280;6763;48.524;9.044;2023-04-10T01:37:41;98351.59;;;6.82;51.53
13387;BME280;6763;48.524;9.044;2023-04-10T01:40:10;98353.25;;;6.75;51.47
13387;BME280;6763;48.524;9.044;2023-04-10T01:42:52;98353.25;;;6.71;51.30
13387;BME280;6763;48.524;9.044;2023-04-10T01:45:19;98351.47;;;6.62;51.64
13387;BME280;6763;48.524;9.044;2023-04-10T01:47:46;98345.41;;;6.54;51.64
13387;BME280;6763;48.524;9.044;2023-04-10T01:50:12;98344.56;;;6.51;51.20
13387;BME280;6763;48.524;9.044;2023-04-10T01:52:39;98349.63;;;6.45;51.67
13387;BME280;6763;48.524;9.044;2023-04-10T01:55:06;98352.19;;;6.42;51.67
13387;BME280;6763;48.524;9.044;2023-04-10T01:57:32;98344.41;;;6.36;51.37
13387;BME280;6763;48.524;9.044;2023-04-10T02:00:00;98340.16;;;6.35;51.82
13387;BME280;6763;48.524;9.044;2023-04-10T02:02:29;98344.44;;;6.34;51.62
13387;BME280;6763;48.524;9.044;2023-04-10T02:04:55;98344.41;;;6.31;51.55
13387;BME280;6763;48.524;9.044;2023-04-10T02:07:45;98341.84;;;6.34;52.18
13387;BME280;6763;48.524;9.044;2023-04-10T02:10:18;98338.41;;;6.32;51.88
13387;BME280;6763;48.524;9.044;2023-04-10T02:13:04;98335.84;;;6.32;51.87
13387;BME280;6763;48.524;9.044;2023-04-10T02:15:31;98346.09;;;6.31;52.35
13387;BME280;6763;48.524;9.044;2023-04-10T02:17:59;98340.13;;;6.32;52.58
13387;BME280;6763;48.524;9.044;2023-04-10T02:20:25;98346.13;;;6.34;52.39
13387;BME280;6763;48.524;9.044;2023-04-10T02:22:52;98343.56;;;6.32;52.59
13387;BME280;6763;48.524;9.044;2023-04-10T02:25:18;98350.41;;;6.33;52.33
13387;BME280;6763;48.524;9.044;2023-04-10T02:27:43;98352.97;;;6.30;52.25
13387;BME280;6763;48.524;9.044;2023-04-10T02:30:09;98346.06;;;6.26;52.26
13387;BME280;6763;48.524;9.044;2023-04-10T02:32:35;98341.78;;;6.22;52.13
13387;BME280;6763;48.524;9.044;2023-04-10T02:35:01;98344.31;;;6.19;52.43
13387;BME280;6763;48.524;9.044;2023-04-10T02:37:27;98344.28;;;6.17;52.33
13387;BME280;6763;48.524;9.044;2023-04-10T02:39:52;98346.03;;;6.17;52.37
13387;BME280;6763;48.524;9.044;2023-04-10T02:42:19;98345.13;;;6.13;52.34
13387;BME280;6763;48.524;9.044;2023-04-10T02:44:44;98350.28;;;6.12;52.93
13387;BME280;6763;48.524;9.044;2023-04-10T02:47:09;98351.97;;;6.13;52.71
13387;BME280;6763;48.524;9.044;2023-04-10T02:49:35;98353.69;;;6.11;52.54
13387;BME280;6763;48.524;9.044;2023-04-10T02:52:01;98361.38;;;6.09;52.73
13387;BME280;6763;48.524;9.044;2023-04-10T02:54:26;98351.03;;;6.03;52.65
13387;BME280;6763;48.524;9.044;2023-04-10T02:56:52;98362.13;;;5.99;52.49
13387;BME280;6763;48.524;9.044;2023-04-10T02:59:17;98359.50;;;5.92;52.86
13387;BME280;6763;48.524;9.044;2023-04-10T03:01:44;98366.38;;;5.91;52.58
13387;BME280;6763;48.524;9.044;2023-04-10T03:04:10;98374.00;;;5.85;52.59
13387;BME280;6763;48.524;9.044;2023-04-10T03:06:35;98373.06;;;5.82;52.94
13387;BME280;6763;48.524;9.044;2023-04-10T03:09:01;98364.50;;;5.78;52.92
13387;BME280;6763;48.524;9.044;2023-04-10T03:11:26;98376.41;;;5.72;52.94
13387;BME280;6763;48.524;9.044;2023-04-10T03:13:51;98372.03;;;5.63;52.90
13387;BME280;6763;48.524;9.044;2023-04-10T03:16:17;98366.03;;;5.59;52.97
13387;BME280;6763;48.524;9.044;2023-04-10T03:18:43;98364.25;;;5.55;53.03
13387;BME280;6763;48.524;9.044;2023-04-10T03:21:08;98359.06;;;5.51;53.07
13387;BME280;6763;48.524;9.044;2023-04-10T03:23:34;98347.94;;;5.49;52.67
13387;BME280;6763;48.524;9.044;2023-04-10T03:26:00;98352.22;;;5.48;53.42
13387;BME280;6763;48.524;9.044;2023-04-10T03:28:26;98353.94;;;5.49;53.79
13387;BME280;6763;48.524;9.044;2023-04-10T03:30:51;98352.25;;;5.51;53.44
13387;BME280;6763;48.524;9.044;2023-04-10T03:33:17;98349.69;;;5.51;53.93
13387;BME280;6763;48.524;9.044;2023-04-10T03:35:44;98344.63;;;5.59;53.95
13387;BME280;6763;48.524;9.044;2023-04-10T03:38:09;98339.50;;;5.62;54.22
13387;BME280;6763;48.524;9.044;2023-04-10T03:40:35;98338.72;;;5.68;54.31
13387;BME280;6763;48.524;9.044;2023-04-10T03:43:00;98322.44;;;5.67;54.16
13387;BME280;6763;48.524;9.044;2023-04-10T03:45:25;98325.09;;;5.79;54.27
13387;BME280;6763;48.524;9.044;2023-04-10T03:47:51;98325.25;;;5.88;53.95
13387;BME280;6763;48.524;9.044;2023-04-10T03:50:17;98327.84;;;5.93;54.25
13387;BME280;6763;48.524;9.044;2023-04-10T03:52:43;98327.88;;;5.97;53.85
13387;BME280;6763;48.524;9.044;2023-04-10T03:55:09;98327.03;;;6.00;54.36
13387;BME280;6763;48.524;9.044;2023-04-10T03:57:34;98326.22;;;6.04;54.22
13387;BME280;6763;48.524;9.044;2023-04-10T03:59:59;98330.56;;;6.09;54.53
13387;BME280;6763;48.524;9.044;2023-04-10T04:02:25;98333.13;;;6.12;54.40
13387;BME280;6763;48.524;9.044;2023-04-10T04:04:51;98328.84;;;6.13;54.07
13387;BME280;6763;48.524;9.044;2023-04-10T04:07:16;98326.28;;;6.11;53.87
13387;BME280;6763;48.524;9.044;2023-04-10T04:09:41;98327.16;;;6.16;53.59
13387;BME280;6763;48.524;9.044;2023-04-10T04:12:07;98326.31;;;6.17;53.70
13387;BME280;6763;48.524;9.044;2023-04-10T04:14:32;98321.16;;;6.17;53.43
13387;BME280;6763;48.524;9.044;2023-04-10T04:16:58;98312.59;;;6.15;53.46
13387;BME280;6763;48.524;9.044;2023-04-10T04:19:23;98311.72;;;6.13;53.02
13387;BME280;6763;48.524;9.044;2023-04-10T04:21:49;98315.09;;;6.08;53.01
13387;BME280;6763;48.524;9.044;2023-04-10T04:24:15;98316.78;;;6.03;53.21
13387;BME280;6763;48.524;9.044;2023-04-10T04:26:40;98311.59;;;5.97;53.04
13387;BME280;6763;48.524;9.044;2023-04-10T04:29:05;98304.72;;;5.93;53.30
13387;BME280;6763;48.524;9.044;2023-04-10T04:31:31;98308.97;;;5.89;53.02
13387;BME280;6763;48.524;9.044;2023-04-10T04:33:59;98307.25;;;5.88;53.14
13387;BME280;6763;48.524;9.044;2023-04-10T04:36:26;98303.78;;;5.85;53.09
13387;BME280;6763;48.524;9.044;2023-04-10T04:38:52;98308.03;;;5.84;53.29
13387;BME280;6763;48.524;9.044;2023-04-10T04:41:17;98312.38;;;5.87;53.44
13387;BME280;6763;48.524;9.044;2023-04-10T04:43:42;98312.41;;;5.88;53.49
13387;BME280;6763;48.524;9.044;2023-04-10T04:46:08;98314.13;;;5.92;53.30
13387;BME280;6763;48.524;9.044;2023-04-10T04:48:34;98308.16;;;5.95;53.21
13387;BME280;6763;48.524;9.044;2023-04-10T04:50:59;98305.59;;;5.98;53.60
13387;BME280;6763;48.524;9.044;2023-04-10T04:53:25;98308.19;;;5.99;53.77
13387;BME280;6763;48.524;9.044;2023-04-10T04:55:50;98305.59;;;5.99;53.37
13387;BME280;6763;48.524;9.044;2023-04-10T04:58:15;98310.75;;;5.99;53.33
13387;BME280;6763;48.524;9.044;2023-04-10T05:00:41;98309.03;;;6.00;53.49
13387;BME280;6763;48.524;9.044;2023-04-10T05:03:06;98307.34;;;6.00;53.51
13387;BME280;6763;48.524;9.044;2023-04-10T05:05:32;98309.06;;;6.03;53.27
13387;BME280;6763;48.524;9.044;2023-04-10T05:07:57;98312.53;;;6.06;53.45
13387;BME280;6763;48.524;9.044;2023-04-10T05:10:22;98319.41;;;6.09;53.84
13387;BME280;6763;48.524;9.044;2023-04-10T05:12:47;98319.44;;;6.12;53.27
13387;BME280;6763;48.524;9.044;2023-04-10T05:15:13;98324.56;;;6.12;53.21
13387;BME280;6763;48.524;9.044;2023-04-10T05:17:38;98323.69;;;6.07;52.94
13387;BME280;6763;48.524;9.044;2023-04-10T05:20:04;98319.28;;;5.97;52.34
13387;BME280;6763;48.524;9.044;2023-04-10T05:22:29;98333.81;;;5.90;52.46
13387;BME280;6763;48.524;9.044;2023-04-10T05:24:55;98321.78;;;5.85;52.83
13387;BME280;6763;48.524;9.044;2023-04-10T05:27:20;98332.81;;;5.79;52.57
13387;BME280;6763;48.524;9.044;2023-04-10T05:29:46;98335.38;;;5.78;52.87
13387;BME280;6763;48.524;9.044;2023-04-10T05:32:12;98349.94;;;5.79;52.82
13387;BME280;6763;48.524;9.044;2023-04-10T05:34:38;98351.66;;;5.80;52.80
13387;BME280;6763;48.524;9.044;2023-04-10T05:37:03;98336.28;;;5.84;52.63
13387;BME280;6763;48.524;9.044;2023-04-10T05:39:32;98342.38;;;5.91;52.92
13387;BME280;6763;48.524;9.044;2023-04-10T05:41:57;98332.13;;;5.97;52.49
13387;BME280;6763;48.524;9.044;2023-04-10T05:44:23;98338.22;;;6.06;52.80
13387;BME280;6763;48.524;9.044;2023-04-10T05:46:48;98340.88;;;6.17;52.19
13387;BME280;6763;48.524;9.044;2023-04-10T05:49:14;98340.94;;;6.26;52.34
13387;BME280;6763;48.524;9.044;2023-04-10T05:51:39;98346.16;;;6.38;52.04
13387;BME280;6763;48.524;9.044;2023-04-10T05:54:04;98354.84;;;6.51;51.69
13387;BME280;6763;48.524;9.044;2023-04-10T05:56:30;98342.03;;;6.61;51.89
13387;BME280;6763;48.524;9.044;2023-04-10T05:58:55;98342.06;;;6.72;51.38
13387;BME280;6763;48.524;9.044;2023-04-10T06:01:21;98338.72;;;6.83;51.14
13387;BME280;6763;48.524;9.044;2023-04-10T06:03:46;98339.63;;;6.93;51.12
13387;BME280;6763;48.524;9.044;2023-04-10T06:06:12;98346.53;;;7.05;50.95
13387;BME280;6763;48.524;9.044;2023-04-10T06:08:37;98342.31;;;7.16;50.72
13387;BME280;6763;48.524;9.044;2023-04-10T06:11:03;98349.19;;;7.29;50.67
13387;BME280;6763;48.524;9.044;2023-04-10T06:13:28;98341.53;;;7.41;50.65
13387;BME280;6763;48.524;9.044;2023-04-10T06:15:53;98331.25;;;7.53;50.15
13387;BME280;6763;48.524;9.044;2023-04-10T06:18:19;98332.09;;;7.63;49.86
13387;BME280;6763;48.524;9.044;2023-04-10T06:20:44;98338.13;;;7.69;49.51
13387;BME280;6763;48.524;9.044;2023-04-10T06:23:10;98336.44;;;7.77;49.63
13387;BME280;6763;48.524;9.044;2023-04-10T06:25:36;98336.44;;;7.86;49.02
13387;BME280;6763;48.524;9.044;2023-04-10T06:28:02;98326.97;;;7.91;49.04
13387;BME280;6763;48.524;9.044;2023-04-10T06:30:27;98327.00;;;7.97;49.13
13387;BME280;6763;48.524;9.044;2023-04-10T06:32:54;98325.25;;;8.07;49.02
13387;BME280;6763;48.524;9.044;2023-04-10T06:35:20;98325.28;;;8.16;49.14
13387;BME280;6763;48.524;9.044;2023-04-10T06:37:45;98322.69;;;8.24;48.87
13387;BME280;6763;48.524;9.044;2023-04-10T06:40:13;98328.75;;;8.38;49.04
13387;BME280;6763;48.524;9.044;2023-04-10T06:42:38;98324.41;;;8.49;48.69
13387;BME280;6763;48.524;9.044;2023-04-10T06:45:05;98320.97;;;8.57;48.43
13387;BME280;6763;48.524;9.044;2023-04-10T06:47:31;98318.34;;;8.66;48.12
13387;BME280;6763;48.524;9.044;2023-04-10T06:49:56;98314.03;;;8.74;48.44
13387;BME280;6763;48.524;9.044;2023-04-10T06:52:22;98314.00;;;8.82;47.90
13387;BME280;6763;48.524;9.044;2023-04-10T06:54:47;98314.84;;;8.89;48.07
13387;BME280;6763;48.524;9.044;2023-04-10T06:57:13;98312.22;;;8.96;47.84
13387;BME280;6763;48.524;9.044;2023-04-10T06:59:38;98309.63;;;9.01;47.18
13387;BME280;6763;48.524;9.044;2023-04-10T07:02:03;98307.03;;;9.07;47.39
13387;BME280;6763;48.524;9.044;2023-04-10T07:04:31;98306.16;;;9.12;46.87
13387;BME280;6763;48.524;9.044;2023-04-10T07:06:56;98300.09;;;9.16;47.02
13387;BME280;6763;48.524;9.044;2023-04-10T07:09:24;98299.19;;;9.23;47.14
13387;BME280;6763;48.524;9.044;2023-04-10T07:11:50;98300.00;;;9.31;46.82
13387;BME280;6763;48.524;9.044;2023-04-10T07:14:16;98293.97;;;9.39;46.76
13387;BME280;6763;48.524;9.044;2023-04-10T07:16:41;98286.97;;;9.50;47.05
13387;BME280;6763;48.524;9.044;2023-04-10T07:19:06;98289.50;;;9.65;46.68
13387;BME280;6763;48.524;9.044;2023-04-10T07:21:32;98293.66;;;9.82;46.95
13387;BME280;6763;48.524;9.044;2023-04-10T07:23:57;98289.22;;;10.01;46.43
13387;BME280;6763;48.524;9.044;2023-04-10T07:26:23;98283.03;;;10.19;46.07
13387;BME280;6763;48.524;9.044;2023-04-10T07:28:49;98280.28;;;10.37;45.18
13387;BME280;6763;48.524;9.044;2023-04-10T07:31:15;98287.03;;;10.53;45.51
13387;BME280;6763;48.524;9.044;2023-04-10T07:33:41;98283.38;;;10.71;44.76
13387;BME280;6763;48.524;9.044;2023-04-10T07:36:07;98285.75;;;10.87;44.52
13387;BME280;6763;48.524;9.044;2023-04-10T07:38:33;98281.19;;;11.07;44.52
13387;BME280;6763;48.524;9.044;2023-04-10T07:40:58;98281.78;;;11.26;43.55
13387;BME280;6763;48.524;9.044;2023-04-10T07:43:24;98278.94;;;11.44;43.62
13387;BME280;6763;48.524;9.044;2023-04-10T07:45:49;98282.19;;;11.61;42.90
13387;BME280;6763;48.524;9.044;2023-04-10T07:48:15;98276.69;;;11.81;42.76
13387;BME280;6763;48.524;9.044;2023-04-10T07:50:40;98272.94;;;12.00;42.41
13387;BME280;6763;48.524;9.044;2023-04-10T07:53:06;98279.50;;;12.21;42.07
13387;BME280;6763;48.524;9.044;2023-04-10T07:55:38;98277.41;;;12.41;41.49
13387;BME280;6763;48.524;9.044;2023-04-10T07:58:03;98274.44;;;12.62;40.68
13387;BME280;6763;48.524;9.044;2023-04-10T08:00:30;98280.09;;;12.82;39.86
13387;BME280;6763;48.524;9.044;2023-04-10T08:02:55;98265.91;;;12.97;39.39
13387;BME280;6763;48.524;9.044;2023-04-10T08:05:20;98263.91;;;13.13;39.66
13387;BME280;6763;48.524;9.044;2023-04-10T08:07:46;98259.09;;;13.34;39.57
13387;BME280;6763;48.524;9.044;2023-04-10T08:10:11;98258.56;;;13.58;39.05
13387;BME280;6763;48.524;9.044;2023-04-10T08:12:36;98258.06;;;13.78;38.38
13387;BME280;6763;48.524;9.044;2023-04-10T08:15:02;98255.84;;;13.98;37.32
13387;BME280;6763;48.524;9.044;2023-04-10T08:17:27;98251.84;;;14.19;37.00
13387;BME280;6763;48.524;9.044;2023-04-10T08:19:53;98245.16;;;14.44;36.92
13387;BME280;6763;48.524;9.044;2023-04-10T08:22:18;98237.50;;;14.70;36.61
13387;BME280;6763;48.524;9.044;2023-04-10T08:24:43;98234.91;;;15.00;36.04
13387;BME280;6763;48.524;9.044;2023-04-10T08:27:08;98240.16;;;15.27;35.97
13387;BME280;6763;48.524;9.044;2023-04-10T08:29:34;98242.75;;;15.57;35.27
13387;BME280;6763;48.524;9.044;2023-04-10T08:31:59;98236.84;;;15.79;34.06
13387;BME280;6763;48.524;9.044;2023-04-10T08:34:25;98236.88;;;16.04;33.35
13387;BME280;6763;48.524;9.044;2023-04-10T08:36:51;98231.56;;;16.32;33.19
13387;BME280;6763;48.524;9.044;2023-04-10T08:39:16;98229.88;;;16.55;32.18
13387;BME280;6763;48.524;9.044;2023-04-10T08:41:42;98234.25;;;16.80;31.89
13387;BME280;6763;48.524;9.044;2023-04-10T08:44:08;98230.88;;;16.99;31.55
13387;BME280;6763;48.524;9.044;2023-04-10T08:46:41;98222.13;;;17.23;30.24
13387;BME280;6763;48.524;9.044;2023-04-10T08:49:09;98220.53;;;17.43;29.64
13387;BME280;6763;48.524;9.044;2023-04-10T08:51:38;98229.56;;;17.57;29.07
13387;BME280;6763;48.524;9.044;2023-04-10T08:54:07;98223.72;;;17.72;28.86
13387;BME280;6763;48.524;9.044;2023-04-10T08:56:36;98223.09;;;17.87;28.84
13387;BME280;6763;48.524;9.044;2023-04-10T08:59:03;98221.53;;;18.04;27.84
13387;BME280;6763;48.524;9.044;2023-04-10T09:01:29;98213.78;;;18.22;28.11
13387;BME280;6763;48.524;9.044;2023-04-10T09:03:55;98209.50;;;18.40;27.55
13387;BME280;6763;48.524;9.044;2023-04-10T09:06:21;98217.38;;;18.60;27.67
13387;BME280;6763;48.524;9.044;2023-04-10T09:08:47;98214.59;;;18.83;27.34
13387;BME280;6763;48.524;9.044;2023-04-10T09:11:13;98210.16;;;19.04;27.02
13387;BME280;6763;48.524;9.044;2023-04-10T09:13:40;98200.59;;;19.22;26.65
13387;BME280;6763;48.524;9.044;2023-04-10T09:16:07;98203.41;;;19.36;26.21
13387;BME280;6763;48.524;9.044;2023-04-10T09:21:13;98200.09;;;19.51;24.96
13387;BME280;6763;48.524;9.044;2023-04-10T09:23:40;98205.94;;;19.57;24.94
13387;BME280;6763;48.524;9.044;2023-04-10T09:26:31;98192.72;;;19.59;23.33
13387;BME280;6763;48.524;9.044;2023-04-10T09:29:05;98189.88;;;19.63;23.81
13387;BME280;6763;48.524;9.044;2023-04-10T09:36:32;98177.50;;;20.68;23.08
13387;BME280;6763;48.524;9.044;2023-04-10T09:38:57;98171.44;;;21.32;22.73
13387;BME280;6763;48.524;9.044;2023-04-10T09:41:23;98159.81;;;21.97;21.89
13387;BME280;6763;48.524;9.044;2023-04-10T09:43:48;98158.34;;;22.65;21.28
13387;BME280;6763;48.524;9.044;2023-04-10T09:46:25;98154.16;;;23.31;20.46
13387;BME280;6763;48.524;9.044;2023-04-10T09:48:54;98147.97;;;23.98;19.72
13387;BME280;6763;48.524;9.044;2023-04-10T09:51:28;98149.97;;;24.59;19.14
13387;BME280;6763;48.524;9.044;2023-04-10T09:53:54;98140.00;;;25.13;18.52
13387;BME280;6763;48.524;9.044;2023-04-10T09:56:21;98138.03;;;25.64;18.24
13387;BME280;6763;48.524;9.044;2023-04-10T09:58:48;98130.03;;;26.12;18.19
13387;BME280;6763;48.524;9.044;2023-04-10T10:01:13;98123.59;;;26.38;16.56
13387;BME280;6763;48.524;9.044;2023-04-10T10:03:40;98116.34;;;26.40;16.41
13387;BME280;6763;48.524;9.044;2023-04-10T10:06:05;98120.94;;;26.49;16.35
13387;BME280;6763;48.524;9.044;2023-04-10T10:08:32;98106.84;;;26.60;15.85
13387;BME280;6763;48.524;9.044;2023-04-10T10:10:59;98110.22;;;26.73;15.58
13387;BME280;6763;48.524;9.044;2023-04-10T10:21:34;98094.81;;;27.54;14.46
13387;BME280;6763;48.524;9.044;2023-04-10T10:24:01;98092.72;;;27.89;14.23
13387;BME280;6763;48.524;9.044;2023-04-10T10:26:27;98086.53;;;28.20;14.14
13387;BME280;6763;48.524;9.044;2023-04-10T10:28:55;98078.69;;;28.49;13.29
13387;BME280;6763;48.524;9.044;2023-04-10T10:31:21;98079.81;;;28.77;13.37
13387;BME280;6763;48.524;9.044;2023-04-10T10:33:51;98075.00;;;29.01;12.56
13387;BME280;6763;48.524;9.044;2023-04-10T10:36:18;98065.72;;;29.26;12.96
13387;BME280;6763;48.524;9.044;2023-04-10T10:38:52;98068.13;;;29.67;12.66
13387;BME280;6763;48.524;9.044;2023-04-10T10:41:28;98050.41;;;30.14;11.81
13387;BME280;6763;48.524;9.044;2023-04-10T10:44:15;98050.91;;;30.46;11.33
13387;BME280;6763;48.524;9.044;2023-04-10T10:46:47;98053.00;;;30.52;11.04
13387;BME280;6763;48.524;9.044;2023-04-10T10:49:13;98041.69;;;30.58;10.98
13387;BME280;6763;48.524;9.044;2023-04-10T10:51:49;98032.53;;;30.61;11.01
13387;BME280;6763;48.524;9.044;2023-04-10T10:54:32;98032.59;;;30.51;10.50
13387;BME280;6763;48.524;9.044;2023-04-10T10:56:58;98029.25;;;30.30;10.90
13387;BME280;6763;48.524;9.044;2023-04-10T10:59:53;98031.59;;;29.96;10.82
13387;BME280;6763;48.524;9.044;2023-04-10T11:02:19;98031.03;;;29.83;10.86
13387;BME280;6763;48.524;9.044;2023-04-10T11:04:47;98027.78;;;29.70;11.26
13387;BME280;6763;48.524;9.044;2023-04-10T11:07:14;98028.94;;;29.58;11.10
13387;BME280;6763;48.524;9.044;2023-04-10T11:09:52;98031.19;;;29.53;11.17
13387;BME280;6763;48.524;9.044;2023-04-10T11:12:27;98020.50;;;29.63;10.93
13387;BME280;6763;48.524;9.044;2023-04-10T11:15:00;98018.25;;;29.77;10.67
13387;BME280;6763;48.524;9.044;2023-04-10T11:17:45;98010.41;;;29.85;10.69
13387;BME280;6763;48.524;9.044;2023-04-10T11:20:11;98007.81;;;30.13;10.74
13387;BME280;6763;48.524;9.044;2023-04-10T11:23:05;98001.91;;;30.19;9.80
13387;BME280;6763;48.524;9.044;2023-04-10T11:25:50;97996.69;;;30.17;10.60
13387;BME280;6763;48.524;9.044;2023-04-10T11:33:49;98001.81;;;29.91;9.52
13387;BME280;6763;48.524;9.044;2023-04-10T11:36:16;98002.81;;;29.71;9.96
13387;BME280;6763;48.524;9.044;2023-04-10T11:39:02;97994.53;;;29.55;8.83
13387;BME280;6763;48.524;9.044;2023-04-10T11:44:10;97998.75;;;29.29;8.85
13387;BME280;6763;48.524;9.044;2023-04-10T11:46:37;97989.84;;;29.19;8.83
13387;BME280;6763;48.524;9.044;2023-04-10T11:49:05;97995.03;;;28.92;8.85
13387;BME280;6763;48.524;9.044;2023-04-10T11:51:31;97980.59;;;28.54;8.85
13387;BME280;6763;48.524;9.044;2023-04-10T11:54:08;97997.81;;;27.99;8.58
13387;BME280;6763;48.524;9.044;2023-04-10T11:56:34;97996.00;;;28.00;9.13
13387;BME280;6763;48.524;9.044;2023-04-10T11:59:00;97986.50;;;28.27;9.07
13387;BME280;6763;48.524;9.044;2023-04-10T12:01:26;97982.22;;;28.46;9.06
13387;BME280;6763;48.524;9.044;2023-04-10T12:03:52;97979.56;;;28.76;9.32
13387;BME280;6763;48.524;9.044;2023-04-10T12:06:18;97972.31;;;29.16;9.12
13387;BME280;6763;48.524;9.044;2023-04-10T12:08:46;97966.31;;;29.62;9.23
13387;BME280;6763;48.524;9.044;2023-04-10T12:11:13;97963.91;;;30.25;9.60
13387;BME280;6763;48.524;9.044;2023-04-10T12:13:41;97956.38;;;30.75;9.07
13387;BME280;6763;48.524;9.044;2023-04-10T12:16:07;97956.91;;;31.05;8.78
13387;BME280;6763;48.524;9.044;2023-04-10T12:18:33;97949.97;;;31.30;8.98
13387;BME280;6763;48.524;9.044;2023-04-10T12:20:59;97946.75;;;31.62;8.60
13387;BME280;6763;48.524;9.044;2023-04-10T12:23:27;97945.44;;;31.66;8.47
13387;BME280;6763;48.524;9.044;2023-04-10T12:25:58;97942.09;;;31.64;8.29
13387;BME280;6763;48.524;9.044;2023-04-10T12:28:29;97943.97;;;31.71;8.65
13387;BME280;6763;48.524;9.044;2023-04-10T12:30:55;97946.88;;;32.04;8.35
13387;BME280;6763;48.524;9.044;2023-04-10T12:33:24;97930.03;;;32.45;8.36
13387;BME280;6763;48.524;9.044;2023-04-10T12:35:56;97934.78;;;32.59;8.04
13387;BME280;6763;48.524;9.044;2023-04-10T12:38:37;97936.88;;;32.39;8.48
13387;BME280;6763;48.524;9.044;2023-04-10T12:41:04;97940.63;;;31.95;7.95
13387;BME280;6763;48.524;9.044;2023-04-10T12:43:31;97938.66;;;31.36;8.18
13387;BME280;6763;48.524;9.044;2023-04-10T12:45:57;97925.81;;;31.22;8.56
13387;BME280;6763;48.524;9.044;2023-04-10T12:48:23;97925.50;;;31.43;8.39
13387;BME280;6763;48.524;9.044;2023-04-10T12:50:48;97924.66;;;31.42;8.86
13387;BME280;6763;48.524;9.044;2023-04-10T12:53:14;97909.25;;;31.44;8.84
13387;BME280;6763;48.524;9.044;2023-04-10T12:55:39;97910.47;;;31.67;8.89
13387;BME280;6763;48.524;9.044;2023-04-10T12:58:16;97917.03;;;31.73;7.53
13387;BME280;6763;48.524;9.044;2023-04-10T13:00:42;97911.84;;;31.28;8.05
13387;BME280;6763;48.524;9.044;2023-04-10T13:03:08;97906.06;;;30.70;8.09
13387;BME280;6763;48.524;9.044;2023-04-10T13:05:33;97900.22;;;30.30;8.46
13387;BME280;6763;48.524;9.044;2023-04-10T13:07:58;97907.75;;;30.07;8.75
13387;BME280;6763;48.524;9.044;2023-04-10T13:10:24;97905.31;;;29.96;8.60
13387;BME280;6763;48.524;9.044;2023-04-10T13:12:49;97902.06;;;29.92;9.04
13387;BME280;6763;48.524;9.044;2023-04-10T13:15:14;97899.63;;;30.08;9.39
13387;BME280;6763;48.524;9.044;2023-04-10T13:17:41;97890.06;;;30.33;9.00
13387;BME280;6763;48.524;9.044;2023-04-10T13:20:08;97895.75;;;30.75;8.82
13387;BME280;6763;48.524;9.044;2023-04-10T13:22:33;97889.75;;;31.08;8.41
13387;BME280;6763;48.524;9.044;2023-04-10T13:24:59;97888.84;;;31.00;8.30
13387;BME280;6763;48.524;9.044;2023-04-10T13:27:24;97897.19;;;30.69;7.89
13387;BME280;6763;48.524;9.044;2023-04-10T13:29:49;97886.91;;;30.20;8.16
13387;BME280;6763;48.524;9.044;2023-04-10T13:32:15;97883.03;;;30.05;8.68
13387;BME280;6763;48.524;9.044;2023-04-10T13:34:40;97881.56;;;29.93;8.43
13387;BME280;6763;48.524;9.044;2023-04-10T13:37:05;97874.47;;;29.55;8.87
13387;BME280;6763;48.524;9.044;2023-04-10T13:39:31;97873.53;;;29.18;8.74
13387;BME280;6763;48.524;9.044;2023-04-10T13:41:58;97870.03;;;28.98;9.36
13387;BME280;6763;48.524;9.044;2023-04-10T13:44:23;97865.53;;;28.99;9.79
13387;BME280;6763;48.524;9.044;2023-04-10T13:46:48;97865.53;;;29.18;9.46
13387;BME280;6763;48.524;9.044;2023-04-10T13:49:15;97864.53;;;29.47;9.79
13387;BME280;6763;48.524;9.044;2023-04-10T13:51:43;97853.94;;;29.65;9.59
13387;BME280;6763;48.524;9.044;2023-04-10T13:54:09;97852.38;;;29.72;9.68
13387;BME280;6763;48.524;9.044;2023-04-10T13:56:35;97858.88;;;29.60;9.55
13387;BME280;6763;48.524;9.044;2023-04-10T13:59:00;97848.41;;;29.30;9.43